createdAt,value
2018-06-11T00:00:58.521Z,61.97
2018-06-11T00:03:26.114Z,59.87
2018-06-11T00:05:53.683Z,66.53
2018-06-11T00:08:21.192Z,65.80
2018-06-11T00:10:48.729Z,66.23
2018-06-11T00:13:16.248Z,66.80
2018-06-11T00:15:43.784Z,56.50
2018-06-11T00:18:11.316Z,48.90
2018-06-11T00:20:38.851Z,45.50
2018-06-11T00:23:06.370Z,41.23
2018-06-11T00:25:33.916Z,37.57
2018-06-11T00:28:01.926Z,40.53
2018-06-11T00:30:29.464Z,41.43
2018-06-11T00:32:56.968Z,48.50
2018-06-11T00:35:24.522Z,41.57
2018-06-11T00:37:52.060Z,45.93
2018-06-11T00:40:19.577Z,40.17
2018-06-11T00:42:47.144Z,39.97
2018-06-11T00:45:14.660Z,36.27
2018-06-11T00:47:42.197Z,42.30
2018-06-11T00:50:09.724Z,46.27
2018-06-11T00:52:37.260Z,39.30
2018-06-11T00:55:04.692Z,38.33
2018-06-11T00:57:32.248Z,37.13
2018-06-11T00:59:59.752Z,40.17
2018-06-11T01:02:27.304Z,37.50
2018-06-11T01:04:54.822Z,41.33
2018-06-11T01:07:22.356Z,44.03
2018-06-11T01:09:49.880Z,46.10
2018-06-11T01:12:17.424Z,42.17
2018-06-11T01:14:44.945Z,40.57
2018-06-11T01:17:12.508Z,37.67
2018-06-11T01:19:40.045Z,72.43
2018-06-11T01:22:07.581Z,39.67
2018-06-11T01:24:35.091Z,54.73
2018-06-11T01:27:02.665Z,43.53
2018-06-11T01:29:30.176Z,43.43
2018-06-11T01:31:57.712Z,59.53
2018-06-11T01:34:25.324Z,49.63
2018-06-11T01:36:52.883Z,49.13
2018-06-11T01:39:20.405Z,66.40
2018-06-11T01:41:47.936Z,46.53
2018-06-11T01:44:15.448Z,56.67
2018-06-11T01:46:42.988Z,61.43
2018-06-11T01:49:10.513Z,42.63
2018-06-11T01:51:38.064Z,46.87
2018-06-11T01:54:05.603Z,58.87
2018-06-11T01:56:33.137Z,45.47
2018-06-11T01:59:00.662Z,37.60
2018-06-11T02:01:28.525Z,40.10
2018-06-11T02:03:56.049Z,38.70
2018-06-11T02:06:23.600Z,43.40
2018-06-11T02:08:51.111Z,45.53
2018-06-11T02:11:18.624Z,42.77
2018-06-11T02:13:46.181Z,41.63
2018-06-11T02:16:13.820Z,81.23
2018-06-11T02:18:41.394Z,72.27
2018-06-11T02:21:08.905Z,61.07
2018-06-11T02:23:36.453Z,44.90
2018-06-11T02:26:03.964Z,39.97
2018-06-11T02:28:31.510Z,96.60
2018-06-11T02:30:59.016Z,41.63
2018-06-11T02:33:26.569Z,54.10
2018-06-11T02:35:54.113Z,44.30
2018-06-11T02:38:21.644Z,45.57
2018-06-11T02:40:49.153Z,53.87
2018-06-11T02:43:16.689Z,44.00
2018-06-11T02:45:44.201Z,40.20
2018-06-11T02:48:11.728Z,39.80
2018-06-11T02:50:39.240Z,52.60
2018-06-11T02:53:06.781Z,65.87
2018-06-11T02:55:34.288Z,57.77
2018-06-11T02:58:02.429Z,42.30
2018-06-11T03:00:29.957Z,38.93
2018-06-11T03:02:57.517Z,67.97
2018-06-11T03:05:25.045Z,92.63
2018-06-11T03:07:52.592Z,71.37
2018-06-11T03:10:20.116Z,81.53
2018-06-11T03:12:47.642Z,54.40
2018-06-11T03:15:15.158Z,49.80
2018-06-11T03:17:42.724Z,58.53
2018-06-11T03:20:10.249Z,53.73
2018-06-11T03:22:37.820Z,42.73
2018-06-11T03:25:05.612Z,44.63
2018-06-11T03:27:33.808Z,45.33
2018-06-11T03:30:28.583Z,48.53
2018-06-11T03:32:56.140Z,49.50
2018-06-11T03:35:23.677Z,40.13
2018-06-11T03:37:51.912Z,46.47
2018-06-11T03:40:19.436Z,49.33
2018-06-11T03:42:46.978Z,46.77
2018-06-11T03:45:14.476Z,44.77
2018-06-11T03:47:42.015Z,48.23
2018-06-11T03:50:09.548Z,61.73
2018-06-11T03:52:37.077Z,61.20
2018-06-11T03:55:04.727Z,50.00
2018-06-11T03:57:32.272Z,49.33
2018-06-11T03:59:59.781Z,40.03
2018-06-11T04:02:27.313Z,49.23
2018-06-11T04:04:54.824Z,44.50
2018-06-11T04:07:22.940Z,55.60
2018-06-11T04:09:50.449Z,40.80
2018-06-11T04:12:18.000Z,68.50
2018-06-11T04:14:45.514Z,70.20
2018-06-11T04:17:13.026Z,75.13
2018-06-11T04:19:40.637Z,49.90
2018-06-11T04:22:08.241Z,48.40
2018-06-11T04:24:36.000Z,44.23
2018-06-11T04:27:04.207Z,42.53
2018-06-11T04:29:31.727Z,42.37
2018-06-11T04:31:59.286Z,40.40
2018-06-11T04:34:26.917Z,75.37
2018-06-11T04:36:55.221Z,59.93
2018-06-11T04:39:22.836Z,50.50
2018-06-11T04:41:50.550Z,54.03
2018-06-11T04:44:18.152Z,55.50
2018-06-11T04:46:45.726Z,62.30
2018-06-11T04:49:13.391Z,48.57
2018-06-11T04:51:42.637Z,54.13
2018-06-11T04:54:10.597Z,49.20
2018-06-11T04:56:38.303Z,46.63
2018-06-11T04:59:06.184Z,42.07
2018-06-11T05:01:34.280Z,40.27
2018-06-11T05:04:02.379Z,47.40
2018-06-11T05:06:30.551Z,48.37
2018-06-11T05:08:58.553Z,40.80
2018-06-11T05:11:26.140Z,45.83
2018-06-11T05:13:54.169Z,42.37
2018-06-11T05:16:21.749Z,49.50
2018-06-11T05:18:49.408Z,46.93
2018-06-11T05:21:17.017Z,51.50
2018-06-11T05:23:44.974Z,41.17
2018-06-11T05:26:12.694Z,49.77
2018-06-11T05:28:40.723Z,54.57
2018-06-11T05:31:08.268Z,50.33
2018-06-11T05:33:35.896Z,49.57
2018-06-11T05:36:04.130Z,42.77
2018-06-11T05:38:32.256Z,49.07
2018-06-11T05:40:59.764Z,48.80
2018-06-11T05:43:27.333Z,42.47
2018-06-11T05:45:54.934Z,47.13
2018-06-11T05:48:22.596Z,44.57
2018-06-11T05:50:50.283Z,49.17
2018-06-11T05:53:18.342Z,47.77
2018-06-11T05:55:46.485Z,42.40
2018-06-11T05:58:14.049Z,44.93
2018-06-11T06:00:41.738Z,43.17
2018-06-11T06:03:09.826Z,44.90
2018-06-11T06:05:37.669Z,41.37
2018-06-11T06:08:06.547Z,43.90
2018-06-11T06:10:34.202Z,47.70
2018-06-11T06:13:02.857Z,43.13
2018-06-11T06:15:30.566Z,45.87
2018-06-11T06:17:58.257Z,45.87
2018-06-11T06:20:25.948Z,51.57
2018-06-11T06:22:53.886Z,53.20
2018-06-11T06:25:21.641Z,43.60
2018-06-11T06:27:50.512Z,48.93
2018-06-11T06:30:18.373Z,55.17
2018-06-11T06:32:46.119Z,44.70
2018-06-11T06:35:13.858Z,48.13
2018-06-11T06:37:41.569Z,45.57
2018-06-11T06:40:09.318Z,47.20
2018-06-11T06:42:37.900Z,46.53
2018-06-11T06:45:05.957Z,49.57
2018-06-11T06:47:33.832Z,55.67
2018-06-11T06:50:01.396Z,53.07
2018-06-11T06:52:29.000Z,52.40
2018-06-11T06:54:56.637Z,50.57
2018-06-11T06:57:24.205Z,46.10
2018-06-11T06:59:51.813Z,50.07
2018-06-11T07:02:19.387Z,53.30
2018-06-11T07:04:47.060Z,53.33
2018-06-11T07:07:14.652Z,45.63
2018-06-11T07:09:42.351Z,48.77
2018-06-11T07:12:10.206Z,50.40
2018-06-11T07:14:37.817Z,47.83
2018-06-11T07:17:05.492Z,43.87
2018-06-11T07:19:33.177Z,49.23
2018-06-11T07:22:01.047Z,51.80
2018-06-11T07:24:28.605Z,55.07
2018-06-11T07:26:56.313Z,44.90
2018-06-11T07:29:23.912Z,43.23
2018-06-11T07:31:51.629Z,42.93
2018-06-11T07:34:19.191Z,41.83
2018-06-11T07:36:47.102Z,43.87
2018-06-11T07:39:14.869Z,35.50
2018-06-11T07:41:42.521Z,40.43
2018-06-11T07:44:10.278Z,36.03
2018-06-11T07:46:37.887Z,35.70
2018-06-11T07:49:05.672Z,41.17
2018-06-11T07:51:33.276Z,35.67
2018-06-11T07:54:00.877Z,37.70
2018-06-11T07:56:28.440Z,31.23
2018-06-11T07:58:56.041Z,30.73
2018-06-11T08:01:24.052Z,32.50
2018-06-11T08:03:52.395Z,33.17
2018-06-11T08:06:20.189Z,29.73
2018-06-11T08:08:47.816Z,31.00
2018-06-11T08:11:15.337Z,39.90
2018-06-11T08:13:42.948Z,39.10
2018-06-11T08:16:10.429Z,32.13
2018-06-11T08:18:37.944Z,37.50
2018-06-11T08:21:05.499Z,33.00
2018-06-11T08:23:33.007Z,30.97
2018-06-11T08:26:00.534Z,36.20
2018-06-11T08:28:28.063Z,35.07
2018-06-11T08:30:55.604Z,32.47
2018-06-11T08:33:23.130Z,35.83
2018-06-11T08:35:50.669Z,34.07
2018-06-11T08:38:18.181Z,32.07
2018-06-11T08:40:45.776Z,31.47
2018-06-11T08:43:13.745Z,32.80
2018-06-11T08:45:41.318Z,35.13
2018-06-11T08:48:08.922Z,31.20
2018-06-11T08:50:36.622Z,31.13
2018-06-11T08:53:04.639Z,28.73
2018-06-11T08:55:32.341Z,29.23
2018-06-11T08:57:59.904Z,28.40
2018-06-11T09:00:27.757Z,25.53
2018-06-11T09:02:55.737Z,25.83
2018-06-11T09:05:23.433Z,23.63
2018-06-11T09:07:51.767Z,24.97
2018-06-11T09:10:19.460Z,24.77
2018-06-11T09:12:47.337Z,29.13
2018-06-11T09:15:15.122Z,31.47
2018-06-11T09:17:43.330Z,26.97
2018-06-11T09:20:10.884Z,26.97
2018-06-11T09:22:38.992Z,27.33
2018-06-11T09:25:06.585Z,24.83
2018-06-11T09:27:34.885Z,24.27
2018-06-11T09:30:02.754Z,24.27
2018-06-11T09:32:30.452Z,22.47
2018-06-11T09:34:58.139Z,24.07
2018-06-11T09:37:26.098Z,24.77
2018-06-11T09:39:53.653Z,17.30
2018-06-11T09:42:21.273Z,19.23
2018-06-11T09:44:49.242Z,20.90
2018-06-11T09:47:16.957Z,22.43
2018-06-11T09:49:44.845Z,20.87
2018-06-11T09:52:12.989Z,22.50
2018-06-11T09:54:41.190Z,22.47
2018-06-11T09:57:09.481Z,21.73
2018-06-11T09:59:37.097Z,22.60
2018-06-11T10:02:04.708Z,23.90
2018-06-11T10:04:33.112Z,22.73
2018-06-11T10:07:00.678Z,25.37
2018-06-11T10:09:28.467Z,23.73
2018-06-11T10:11:55.968Z,24.77
2018-06-11T10:14:23.584Z,20.80
2018-06-11T10:16:51.125Z,21.50
2018-06-11T10:19:18.669Z,20.40
2018-06-11T10:21:46.195Z,20.47
2018-06-11T10:24:13.772Z,23.80
2018-06-11T10:26:41.292Z,20.33
2018-06-11T10:29:08.824Z,22.53
2018-06-11T10:31:36.345Z,21.43
2018-06-11T10:34:03.874Z,22.17
2018-06-11T10:36:31.424Z,21.90
2018-06-11T10:38:58.968Z,22.03
2018-06-11T10:41:26.673Z,22.07
2018-06-11T10:43:54.308Z,21.80
2018-06-11T10:46:22.057Z,24.00
2018-06-11T10:48:49.795Z,25.07
2018-06-11T10:51:17.379Z,29.57
2018-06-11T10:53:44.969Z,25.57
2018-06-11T10:56:12.516Z,27.57
2018-06-11T10:58:41.117Z,26.67
2018-06-11T11:01:09.429Z,28.53
2018-06-11T11:03:38.485Z,27.03
2018-06-11T11:06:06.241Z,31.63
2018-06-11T11:08:33.877Z,29.07
2018-06-11T11:11:01.541Z,29.50
2018-06-11T11:13:29.093Z,31.27
2018-06-11T11:15:56.661Z,39.50
2018-06-11T11:18:24.637Z,35.27
2018-06-11T11:20:52.417Z,30.23
2018-06-11T11:23:20.200Z,32.50
2018-06-11T11:25:47.834Z,34.67
2018-06-11T11:28:15.408Z,36.57
2018-06-11T11:30:43.060Z,32.90
2018-06-11T11:33:10.647Z,33.87
2018-06-11T11:35:38.296Z,39.07
2018-06-11T11:38:05.892Z,39.70
2018-06-11T11:40:33.528Z,39.70
2018-06-11T11:43:02.467Z,39.87
2018-06-11T11:45:30.200Z,38.13
2018-06-11T11:47:58.454Z,36.13
2018-06-11T11:50:26.004Z,32.57
2018-06-11T11:52:53.682Z,37.27
2018-06-11T11:55:21.273Z,33.83
2018-06-11T11:57:49.632Z,30.30
2018-06-11T12:00:17.176Z,30.20
2018-06-11T12:02:44.861Z,30.50
2018-06-11T12:05:12.558Z,31.93
2018-06-11T12:07:40.238Z,33.03
2018-06-11T12:10:07.860Z,30.20
2018-06-11T12:12:35.761Z,30.27
2018-06-11T12:15:03.392Z,27.50
2018-06-11T12:17:30.935Z,29.83
2018-06-11T12:19:58.455Z,29.43
2018-06-11T12:22:25.990Z,31.17
2018-06-11T12:24:53.496Z,34.23
2018-06-11T12:27:21.056Z,29.50
2018-06-11T12:29:48.570Z,28.37
2018-06-11T12:32:16.109Z,30.70
2018-06-11T12:34:43.633Z,30.50
2018-06-11T12:37:11.201Z,28.30
2018-06-11T12:39:38.711Z,27.93
2018-06-11T12:42:06.917Z,29.13
2018-06-11T12:44:34.420Z,30.67
2018-06-11T12:47:01.941Z,28.83
2018-06-11T12:49:29.452Z,25.37
2018-06-11T12:51:56.993Z,25.00
2018-06-11T12:54:25.144Z,29.17
2018-06-11T12:56:52.780Z,29.30
2018-06-11T12:59:20.524Z,31.83
2018-06-11T13:01:49.058Z,29.57
2018-06-11T13:04:16.635Z,36.70
2018-06-11T13:06:44.178Z,32.10
2018-06-11T13:09:11.711Z,37.67
2018-06-11T13:11:39.228Z,36.43
2018-06-11T13:14:06.841Z,37.57
2018-06-11T13:16:34.700Z,45.83
2018-06-11T13:19:02.254Z,41.40
2018-06-11T13:21:29.800Z,41.83
2018-06-11T13:23:57.471Z,44.33
2018-06-11T13:26:25.220Z,45.53
2018-06-11T13:28:52.961Z,49.23
2018-06-11T13:31:20.642Z,49.13
2018-06-11T13:33:49.266Z,50.37
2018-06-11T13:36:16.883Z,56.30
2018-06-11T13:38:44.520Z,48.97
2018-06-11T13:41:12.121Z,50.53
2018-06-11T13:43:39.729Z,58.30
2018-06-11T13:46:07.313Z,56.03
2018-06-11T13:48:34.846Z,62.37
2018-06-11T13:51:02.461Z,61.07
2018-06-11T13:53:30.046Z,65.43
2018-06-11T13:55:57.705Z,69.57
2018-06-11T13:58:25.349Z,55.03
2018-06-11T14:00:53.028Z,62.53
2018-06-11T14:03:20.840Z,57.77
2018-06-11T14:05:48.485Z,57.00
2018-06-11T14:08:16.079Z,45.23
2018-06-11T14:10:44.233Z,55.67
2018-06-11T14:13:11.922Z,59.23
2018-06-11T14:15:39.710Z,50.33
2018-06-11T14:18:07.498Z,41.17
2018-06-11T14:20:35.108Z,32.33
2018-06-11T14:23:03.445Z,39.40
2018-06-11T14:25:31.096Z,51.20
2018-06-11T14:27:58.748Z,37.53
2018-06-11T14:30:26.335Z,34.77
2018-06-11T14:32:54.096Z,27.13
2018-06-11T14:35:21.692Z,37.57
2018-06-11T14:37:49.853Z,31.33
2018-06-11T14:40:17.573Z,28.07
2018-06-11T14:42:45.188Z,34.03
2018-06-11T14:45:12.805Z,33.60
2018-06-11T14:47:40.499Z,45.03
2018-06-11T14:50:08.161Z,41.97
2018-06-11T14:52:35.889Z,42.07
2018-06-11T14:55:03.628Z,47.10
2018-06-11T14:57:31.297Z,42.87
2018-06-11T14:59:59.042Z,42.90
2018-06-11T15:02:26.729Z,50.03
2018-06-11T15:04:54.843Z,46.60
2018-06-11T15:07:22.476Z,50.73
2018-06-11T15:09:50.111Z,53.67
2018-06-11T15:12:17.725Z,58.70
2018-06-11T15:14:45.380Z,52.93
2018-06-11T15:17:13.067Z,51.47
2018-06-11T15:19:40.716Z,57.03
2018-06-11T15:22:08.420Z,50.57
2018-06-11T15:24:36.640Z,55.13
2018-06-11T15:27:04.384Z,56.23
2018-06-11T15:29:32.021Z,60.57
2018-06-11T15:31:59.788Z,57.80
2018-06-11T15:34:27.369Z,64.63
2018-06-11T15:36:55.179Z,53.57
2018-06-11T15:39:23.421Z,64.60
2018-06-11T15:41:51.029Z,52.37
2018-06-11T15:44:18.667Z,80.87
2018-06-11T15:46:46.385Z,78.77
2018-06-11T15:49:14.004Z,58.43
2018-06-11T15:51:41.597Z,67.17
2018-06-11T15:54:09.148Z,57.87
2018-06-11T15:56:37.352Z,58.20
2018-06-11T15:59:04.928Z,71.23
2018-06-11T16:01:32.460Z,57.67
2018-06-11T16:04:00.034Z,68.47
2018-06-11T16:06:27.591Z,64.93
2018-06-11T16:08:55.140Z,60.63
2018-06-11T16:11:22.680Z,56.73
2018-06-11T16:13:50.221Z,61.10
2018-06-11T16:16:17.748Z,72.27
2018-06-11T16:18:45.297Z,77.13
2018-06-11T16:21:12.812Z,55.33
2018-06-11T16:23:40.347Z,70.63
2018-06-11T16:26:07.959Z,71.13
2018-06-11T16:28:35.608Z,58.57
2018-06-11T16:31:03.205Z,54.27
2018-06-11T16:33:30.745Z,72.00
2018-06-11T16:35:58.309Z,50.70
2018-06-11T16:38:25.961Z,61.67
2018-06-11T16:40:53.509Z,61.77
2018-06-11T16:43:21.166Z,72.30
2018-06-11T16:45:48.823Z,57.97
2018-06-11T16:48:16.330Z,60.30
2018-06-11T16:50:43.932Z,76.80
2018-06-11T16:53:11.636Z,71.77
2018-06-11T16:55:39.314Z,68.07
2018-06-11T16:58:06.909Z,56.50
2018-06-11T17:00:34.503Z,68.53
2018-06-11T17:03:02.089Z,76.27
2018-06-11T17:05:29.761Z,67.17
2018-06-11T17:07:57.641Z,66.57
2018-06-11T17:10:25.286Z,70.60
2018-06-11T17:12:52.876Z,53.87
2018-06-11T17:15:20.446Z,59.83
2018-06-11T17:17:48.008Z,62.73
2018-06-11T17:20:15.579Z,66.83
2018-06-11T17:22:43.149Z,69.93
2018-06-11T17:25:10.696Z,83.17
2018-06-11T17:27:38.316Z,68.57
2018-06-11T17:30:06.000Z,76.07
2018-06-11T17:32:33.628Z,58.50
2018-06-11T17:35:01.226Z,63.13
2018-06-11T17:37:28.781Z,60.60
2018-06-11T17:39:56.321Z,48.93
2018-06-11T17:42:23.989Z,42.93
2018-06-11T17:44:51.533Z,49.73
2018-06-11T17:47:19.149Z,59.70
2018-06-11T17:49:46.759Z,59.23
2018-06-11T17:52:14.326Z,57.53
2018-06-11T17:54:41.886Z,47.73
2018-06-11T17:57:09.440Z,57.50
2018-06-11T17:59:37.014Z,46.30
2018-06-11T18:02:04.701Z,65.13
2018-06-11T18:04:32.365Z,61.73
2018-06-11T18:07:00.485Z,56.73
2018-06-11T18:09:28.172Z,52.97
2018-06-11T18:11:55.789Z,59.47
2018-06-11T18:14:23.390Z,53.60
2018-06-11T18:16:51.029Z,49.17
2018-06-11T18:19:18.580Z,54.37
2018-06-11T18:21:46.155Z,61.80
2018-06-11T18:24:13.820Z,58.27
2018-06-11T18:26:41.381Z,58.30
2018-06-11T18:29:09.016Z,59.33
2018-06-11T18:31:36.617Z,52.87
2018-06-11T18:34:04.222Z,59.37
2018-06-11T18:36:31.889Z,64.67
2018-06-11T18:38:59.464Z,72.20
2018-06-11T18:41:27.279Z,74.30
2018-06-11T18:43:54.941Z,62.53
2018-06-11T18:46:22.669Z,54.00
2018-06-11T18:48:50.304Z,101.33
2018-06-11T18:51:18.208Z,73.47
2018-06-11T18:53:45.829Z,63.03
2018-06-11T18:56:13.449Z,58.87
2018-06-11T18:58:41.044Z,60.23
2018-06-11T19:01:08.747Z,51.20
2018-06-11T19:03:36.348Z,65.93
2018-06-11T19:06:04.004Z,69.57
2018-06-11T19:08:31.618Z,56.63
2018-06-11T19:10:59.178Z,68.17
2018-06-11T19:13:26.893Z,69.57
2018-06-11T19:15:54.498Z,74.30
2018-06-11T19:18:22.057Z,60.73
2018-06-11T19:20:49.581Z,62.43
2018-06-11T19:23:17.116Z,62.67
2018-06-11T19:25:44.663Z,68.47
2018-06-11T19:28:12.209Z,75.33
2018-06-11T19:30:39.757Z,72.47
2018-06-11T19:33:07.427Z,71.20
2018-06-11T19:35:35.021Z,62.43
2018-06-11T19:38:02.513Z,60.57
2018-06-11T19:40:30.068Z,71.87
2018-06-11T19:42:57.535Z,66.53
2018-06-11T19:45:25.159Z,58.70
2018-06-11T19:47:52.686Z,58.73
2018-06-11T19:50:20.241Z,62.20
2018-06-11T19:52:47.760Z,61.07
2018-06-11T19:55:15.313Z,53.27
2018-06-11T19:57:42.876Z,66.00
2018-06-11T20:00:10.348Z,62.87
2018-06-11T20:02:37.889Z,64.43
2018-06-11T20:05:05.480Z,78.30
2018-06-11T20:07:33.012Z,74.70
2018-06-11T20:10:00.555Z,53.93
2018-06-11T20:12:28.068Z,68.67
2018-06-11T20:14:55.616Z,80.53
2018-06-11T20:17:23.148Z,70.77
2018-06-11T20:19:50.707Z,75.90
2018-06-11T20:22:18.255Z,80.37
2018-06-11T20:24:45.845Z,78.03
2018-06-11T20:27:13.391Z,65.57
2018-06-11T20:29:40.935Z,57.87
2018-06-11T20:32:08.603Z,69.17
2018-06-11T20:34:36.120Z,68.40
2018-06-11T20:37:03.740Z,66.03
2018-06-11T20:39:31.269Z,71.20
2018-06-11T20:41:58.817Z,84.20
2018-06-11T20:44:26.348Z,78.40
2018-06-11T20:46:53.901Z,83.73
2018-06-11T20:49:21.420Z,68.13
2018-06-11T20:51:48.964Z,60.87
2018-06-11T20:54:16.504Z,59.73
2018-06-11T20:56:44.065Z,60.17
2018-06-11T20:59:11.575Z,66.13
2018-06-11T21:01:39.124Z,59.13
2018-06-11T21:04:06.633Z,63.10
2018-06-11T21:06:34.182Z,53.27
2018-06-11T21:09:01.706Z,55.90
2018-06-11T21:11:29.257Z,59.13
2018-06-11T21:13:57.494Z,65.93
2018-06-11T21:16:25.021Z,63.53
2018-06-11T21:18:52.565Z,74.93
2018-06-11T21:21:20.100Z,68.30
2018-06-11T21:23:47.620Z,64.83
2018-06-11T21:26:15.140Z,88.33
2018-06-11T21:28:42.584Z,61.97
2018-06-11T21:31:10.124Z,65.03
2018-06-11T21:33:37.635Z,60.03
2018-06-11T21:36:05.244Z,63.67
2018-06-11T21:38:32.752Z,65.00
2018-06-11T21:41:00.298Z,67.67
2018-06-11T21:43:27.824Z,60.30
2018-06-11T21:45:55.348Z,75.47
2018-06-11T21:48:23.628Z,63.17
2018-06-11T21:50:51.189Z,83.47
2018-06-11T21:53:18.709Z,67.97
2018-06-11T21:55:46.245Z,61.57
2018-06-11T21:58:13.759Z,63.47
2018-06-11T22:01:11.417Z,53.30
2018-06-11T22:03:38.954Z,61.60
2018-06-11T22:06:06.489Z,75.83
2018-06-11T22:08:34.004Z,55.57
2018-06-11T22:11:01.557Z,52.90
2018-06-11T22:13:29.414Z,74.80
2018-06-11T22:15:56.952Z,56.50
2018-06-11T22:18:24.461Z,57.60
2018-06-11T22:20:52.023Z,46.90
2018-06-11T22:23:19.556Z,58.63
2018-06-11T22:25:47.102Z,52.43
2018-06-11T22:28:14.639Z,60.50
2018-06-11T22:30:42.262Z,65.07
2018-06-11T22:33:09.698Z,52.30
2018-06-11T22:35:37.257Z,51.87
2018-06-11T22:38:04.792Z,55.90
2018-06-11T22:40:32.330Z,45.17
2018-06-11T22:42:59.872Z,47.03
2018-06-11T22:45:27.379Z,38.00
2018-06-11T22:47:54.919Z,40.83
2018-06-11T22:50:22.444Z,43.23
2018-06-11T22:52:49.991Z,58.13
2018-06-11T22:55:17.536Z,40.53
2018-06-11T22:57:45.071Z,44.93
2018-06-11T23:00:12.868Z,37.23
2018-06-11T23:02:40.448Z,34.13
2018-06-11T23:05:07.957Z,32.93
2018-06-11T23:07:35.502Z,35.93
2018-06-11T23:10:03.097Z,37.00
2018-06-11T23:12:30.632Z,50.37
2018-06-11T23:14:58.140Z,46.73
2018-06-11T23:17:25.721Z,38.97
2018-06-11T23:19:53.233Z,39.37
2018-06-11T23:22:20.767Z,39.63
2018-06-11T23:24:48.280Z,40.83
2018-06-11T23:27:15.825Z,44.03
2018-06-11T23:29:43.332Z,47.73
2018-06-11T23:32:10.852Z,38.83
2018-06-11T23:34:38.364Z,39.77
2018-06-11T23:37:05.905Z,36.73
2018-06-11T23:39:33.409Z,40.60
2018-06-11T23:42:00.948Z,36.63
2018-06-11T23:44:28.460Z,42.37
2018-06-11T23:46:56.001Z,44.07
2018-06-11T23:49:23.529Z,38.53
2018-06-11T23:51:51.068Z,42.13
2018-06-11T23:54:18.584Z,39.80
2018-06-11T23:56:46.128Z,39.73
2018-06-11T23:59:13.640Z,35.37
